sensor_id;sensor_type;location;lat;lon;timestamp;pressure;altitude;pressure_sealevel;temperature;humidity
61472;BME280;47337;54.068;12.114;2022-08-27T00:00:21;101228.41;;;19.94;100.00
61472;BME280;47337;54.068;12.114;2022-08-27T00:02:48;101243.56;;;19.92;100.00
61472;BME280;47337;54.068;12.114;2022-08-27T00:05:15;101253.44;;;19.89;100.00
61472;BME280;47337;54.068;12.114;2022-08-27T00:07:44;101251.66;;;19.88;100.00
61472;BME280;47337;54.068;12.114;2022-08-27T00:10:16;101265.91;;;19.87;100.00
61472;BME280;47337;54.068;12.114;2022-08-27T00:12:42;101265.03;;;19.85;100.00
61472;BME280;47337;54.068;12.114;2022-08-27T00:15:08;101271.25;;;19.85;100.00
61472;BME280;47337;54.068;12.114;2022-08-27T00:17:34;101279.19;;;19.90;100.00
61472;BME280;47337;54.068;12.114;2022-08-27T00:20:03;101278.25;;;19.91;100.00
61472;BME280;47337;54.068;12.114;2022-08-27T00:22:29;101283.50;;;19.94;100.00
61472;BME280;47337;54.068;12.114;2022-08-27T00:24:54;101286.13;;;19.97;100.00
61472;BME280;47337;54.068;12.114;2022-08-27T00:27:20;101290.59;;;19.95;100.00
61472;BME280;47337;54.068;12.114;2022-08-27T00:29:46;101296.81;;;19.95;100.00
61472;BME280;47337;54.068;12.114;2022-08-27T00:32:11;101302.13;;;19.97;100.00
61472;BME280;47337;54.068;12.114;2022-08-27T00:34:37;101309.81;;;20.12;100.00
61472;BME280;47337;54.068;12.114;2022-08-27T00:37:02;101313.41;;;20.11;100.00
61472;BME280;47337;54.068;12.114;2022-08-27T00:39:28;101311.63;;;20.10;100.00
61472;BME280;47337;54.068;12.114;2022-08-27T00:41:53;101314.31;;;20.10;100.00
61472;BME280;47337;54.068;12.114;2022-08-27T00:44:19;101315.06;;;20.15;100.00
61472;BME280;47337;54.068;12.114;2022-08-27T00:46:50;101316.78;;;20.19;100.00
61472;BME280;47337;54.068;12.114;2022-08-27T00:52:06;101313.88;;;20.30;100.00
61472;BME280;47337;54.068;12.114;2022-08-27T00:54:32;101324.66;;;20.24;100.00
61472;BME280;47337;54.068;12.114;2022-08-27T00:56:59;101310.50;;;20.22;100.00
61472;BME280;47337;54.068;12.114;2022-08-27T00:59:26;101303.34;;;20.24;100.00
61472;BME280;47337;54.068;12.114;2022-08-27T01:01:58;101306.06;;;20.22;100.00
61472;BME280;47337;54.068;12.114;2022-08-27T01:04:44;101313.06;;;20.26;100.00
61472;BME280;47337;54.068;12.114;2022-08-27T01:07:12;101314.88;;;20.24;100.00
61472;BME280;47337;54.068;12.114;2022-08-27T01:09:40;101322.94;;;20.23;100.00
61472;BME280;47337;54.068;12.114;2022-08-27T01:12:07;101309.50;;;20.27;100.00
61472;BME280;47337;54.068;12.114;2022-08-27T01:14:33;101302.53;;;20.20;100.00
61472;BME280;47337;54.068;12.114;2022-08-27T01:17:03;101310.59;;;20.17;100.00
61472;BME280;47337;54.068;12.114;2022-08-27T01:19:42;101306.22;;;20.13;100.00
61472;BME280;47337;54.068;12.114;2022-08-27T01:22:12;101305.41;;;20.11;100.00
61472;BME280;47337;54.068;12.114;2022-08-27T01:24:45;101316.13;;;20.08;100.00
61472;BME280;47337;54.068;12.114;2022-08-27T01:27:16;101325.91;;;20.06;100.00
61472;BME280;47337;54.068;12.114;2022-08-27T01:29:42;101318.03;;;20.01;100.00
61472;BME280;47337;54.068;12.114;2022-08-27T01:32:18;101317.97;;;20.03;100.00
61472;BME280;47337;54.068;12.114;2022-08-27T01:34:44;101318.03;;;20.01;100.00
61472;BME280;47337;54.068;12.114;2022-08-27T01:37:11;101326.94;;;20.00;100.00
61472;BME280;47337;54.068;12.114;2022-08-27T01:39:38;101327.94;;;19.93;100.00
61472;BME280;47337;54.068;12.114;2022-08-27T01:42:11;101325.28;;;19.93;100.00
61472;BME280;47337;54.068;12.114;2022-08-27T01:45:00;101329.72;;;19.93;100.00
61472;BME280;47337;54.068;12.114;2022-08-27T01:47:29;101328.81;;;19.95;100.00
61472;BME280;47337;54.068;12.114;2022-08-27T01:49:55;101325.19;;;19.99;100.00
61472;BME280;47337;54.068;12.114;2022-08-27T01:52:24;101333.19;;;19.98;100.00
61472;BME280;47337;54.068;12.114;2022-08-27T01:54:50;101338.34;;;20.07;100.00
61472;BME280;47337;54.068;12.114;2022-08-27T01:57:17;101356.25;;;20.02;100.00
61472;BME280;47337;54.068;12.114;2022-08-27T01:59:43;101352.59;;;20.06;100.00
61472;BME280;47337;54.068;12.114;2022-08-27T02:02:11;101356.97;;;20.10;100.00
61472;BME280;47337;54.068;12.114;2022-08-27T02:04:40;101357.09;;;20.02;100.00
61472;BME280;47337;54.068;12.114;2022-08-27T02:07:08;101369.50;;;20.03;100.00
61472;BME280;47337;54.068;12.114;2022-08-27T02:09:34;101378.50;;;19.99;100.00
61472;BME280;47337;54.068;12.114;2022-08-27T02:12:02;101381.13;;;20.01;100.00
61472;BME280;47337;54.068;12.114;2022-08-27T02:14:28;101384.72;;;19.98;100.00
61472;BME280;47337;54.068;12.114;2022-08-27T02:16:54;101390.78;;;20.06;100.00
61472;BME280;47337;54.068;12.114;2022-08-27T02:19:22;101388.13;;;20.06;100.00
61472;BME280;47337;54.068;12.114;2022-08-27T02:21:48;101386.34;;;20.07;100.00
61472;BME280;47337;54.068;12.114;2022-08-27T02:24:14;101388.22;;;20.02;100.00
61472;BME280;47337;54.068;12.114;2022-08-27T02:26:40;101391.78;;;20.01;100.00
61472;BME280;47337;54.068;12.114;2022-08-27T02:29:06;101394.38;;;20.04;100.00
61472;BME280;47337;54.068;12.114;2022-08-27T02:31:32;101396.03;;;20.11;100.00
61472;BME280;47337;54.068;12.114;2022-08-27T02:33:57;101390.78;;;20.06;100.00
61472;BME280;47337;54.068;12.114;2022-08-27T02:36:23;101383.66;;;20.08;100.00
61472;BME280;47337;54.068;12.114;2022-08-27T02:38:49;101380.06;;;20.09;100.00
61472;BME280;47337;54.068;12.114;2022-08-27T02:41:15;101378.28;;;20.10;100.00
61472;BME280;47337;54.068;12.114;2022-08-27T02:43:41;101384.41;;;20.15;100.00
61472;BME280;47337;54.068;12.114;2022-08-27T02:46:10;101370.25;;;20.12;100.00
61472;BME280;47337;54.068;12.114;2022-08-27T02:48:37;101373.84;;;20.10;100.00
61472;BME280;47337;54.068;12.114;2022-08-27T02:51:03;101365.81;;;20.12;100.00
61472;BME280;47337;54.068;12.114;2022-08-27T02:53:30;101367.59;;;20.12;100.00
61472;BME280;47337;54.068;12.114;2022-08-27T02:55:59;101366.81;;;20.05;100.00
61472;BME280;47337;54.068;12.114;2022-08-27T02:58:24;101364.19;;;20.03;100.00
61472;BME280;47337;54.068;12.114;2022-08-27T03:00:50;101365.00;;;20.07;100.00
61472;BME280;47337;54.068;12.114;2022-08-27T03:03:15;101357.91;;;20.06;100.00
61472;BME280;47337;54.068;12.114;2022-08-27T03:05:41;101375.66;;;20.07;100.00
61472;BME280;47337;54.068;12.114;2022-08-27T03:08:09;101370.19;;;20.15;100.00
61472;BME280;47337;54.068;12.114;2022-08-27T03:10:35;101369.22;;;20.19;100.00
61472;BME280;47337;54.068;12.114;2022-08-27T03:13:01;101367.59;;;20.12;100.00
61472;BME280;47337;54.068;12.114;2022-08-27T03:15:27;101372.81;;;20.18;100.00
61472;BME280;47337;54.068;12.114;2022-08-27T03:17:52;101385.19;;;20.22;100.00
61472;BME280;47337;54.068;12.114;2022-08-27T03:20:38;101384.28;;;20.21;100.00
61472;BME280;47337;54.068;12.114;2022-08-27T03:23:05;101382.53;;;20.20;100.00
61472;BME280;47337;54.068;12.114;2022-08-27T03:25:30;101387.81;;;20.23;100.00
61472;BME280;47337;54.068;12.114;2022-08-27T03:27:56;101385.19;;;20.22;100.00
61472;BME280;47337;54.068;12.114;2022-08-27T03:30:22;101383.38;;;20.22;100.00
61472;BME280;47337;54.068;12.114;2022-08-27T03:32:50;101382.41;;;20.26;100.00
61472;BME280;47337;54.068;12.114;2022-08-27T03:35:16;101383.22;;;20.30;100.00
61472;BME280;47337;54.068;12.114;2022-08-27T03:37:42;101385.78;;;20.34;100.00
61472;BME280;47337;54.068;12.114;2022-08-27T03:40:08;101376.84;;;20.38;100.00
61472;BME280;47337;54.068;12.114;2022-08-27T03:42:35;101374.28;;;20.32;100.00
61472;BME280;47337;54.068;12.114;2022-08-27T03:45:00;101371.72;;;20.26;100.00
61472;BME280;47337;54.068;12.114;2022-08-27T03:47:26;101376.28;;;20.23;100.00
61472;BME280;47337;54.068;12.114;2022-08-27T03:49:51;101373.63;;;20.21;100.00
61472;BME280;47337;54.068;12.114;2022-08-27T03:52:17;101373.53;;;20.24;100.00
61472;BME280;47337;54.068;12.114;2022-08-27T03:54:43;101369.19;;;20.20;100.00
61472;BME280;47337;54.068;12.114;2022-08-27T03:57:09;101376.34;;;20.18;100.00
61472;BME280;47337;54.068;12.114;2022-08-27T03:59:35;101373.63;;;20.21;100.00
61472;BME280;47337;54.068;12.114;2022-08-27T04:02:03;101373.66;;;20.20;100.00
61472;BME280;47337;54.068;12.114;2022-08-27T04:04:29;101363.94;;;20.16;100.00
61472;BME280;47337;54.068;12.114;2022-08-27T04:06:55;101377.16;;;20.23;100.00
61472;BME280;47337;54.068;12.114;2022-08-27T04:09:21;101378.13;;;20.18;100.00
61472;BME280;47337;54.068;12.114;2022-08-27T04:11:47;101375.31;;;20.25;100.00
61472;BME280;47337;54.068;12.114;2022-08-27T04:14:12;101378.78;;;20.30;100.00
61472;BME280;47337;54.068;12.114;2022-08-27T04:16:40;101364.59;;;20.28;100.00
61472;BME280;47337;54.068;12.114;2022-08-27T04:19:06;101364.72;;;20.22;100.00
61472;BME280;47337;54.068;12.114;2022-08-27T04:21:37;101362.88;;;20.24;100.00
61472;BME280;47337;54.068;12.114;2022-08-27T04:24:02;101361.06;;;20.26;100.00
61472;BME280;47337;54.068;12.114;2022-08-27T04:26:28;101357.44;;;20.30;100.00
61472;BME280;47337;54.068;12.114;2022-08-27T04:28:53;101352.22;;;20.24;100.00
61472;BME280;47337;54.068;12.114;2022-08-27T04:31:19;101359.31;;;20.25;100.00
61472;BME280;47337;54.068;12.114;2022-08-27T04:33:48;101354.81;;;20.29;100.00
61472;BME280;47337;54.068;12.114;2022-08-27T04:36:14;101347.69;;;20.28;100.00
61472;BME280;47337;54.068;12.114;2022-08-27T04:38:43;101356.63;;;20.25;100.00
61472;BME280;47337;54.068;12.114;2022-08-27T04:41:11;101364.63;;;20.25;100.00
61472;BME280;47337;54.068;12.114;2022-08-27T04:43:55;101366.41;;;20.26;100.00
61472;BME280;47337;54.068;12.114;2022-08-27T04:46:22;101374.28;;;20.34;100.00
61472;BME280;47337;54.068;12.114;2022-08-27T04:48:49;101375.25;;;20.28;100.00
61472;BME280;47337;54.068;12.114;2022-08-27T04:51:14;101369.91;;;20.28;100.00
61472;BME280;47337;54.068;12.114;2022-08-27T04:53:42;101375.19;;;20.31;100.00
61472;BME280;47337;54.068;12.114;2022-08-27T04:56:14;101376.97;;;20.32;100.00
61472;BME280;47337;54.068;12.114;2022-08-27T04:58:40;101384.09;;;20.32;100.00
61472;BME280;47337;54.068;12.114;2022-08-27T05:01:06;101378.75;;;20.32;100.00
61472;BME280;47337;54.068;12.114;2022-08-27T05:03:34;101373.50;;;20.27;100.00
61472;BME280;47337;54.068;12.114;2022-08-27T05:06:03;101383.09;;;20.37;100.00
61472;BME280;47337;54.068;12.114;2022-08-27T05:08:32;101391.13;;;20.34;100.00
61472;BME280;47337;54.068;12.114;2022-08-27T05:10:58;101386.66;;;20.36;100.00
61472;BME280;47337;54.068;12.114;2022-08-27T05:13:24;101378.81;;;20.27;100.00
61472;BME280;47337;54.068;12.114;2022-08-27T05:16:00;101385.19;;;20.20;100.00
61472;BME280;47337;54.068;12.114;2022-08-27T05:18:26;101378.09;;;20.21;100.00
61472;BME280;47337;54.068;12.114;2022-08-27T05:20:51;101372.63;;;20.25;100.00
61472;BME280;47337;54.068;12.114;2022-08-27T05:23:18;101367.38;;;20.22;100.00
61472;BME280;47337;54.068;12.114;2022-08-27T05:25:46;101376.97;;;20.32;100.00
61472;BME280;47337;54.068;12.114;2022-08-27T05:28:13;101375.13;;;20.34;100.00
61472;BME280;47337;54.068;12.114;2022-08-27T05:30:41;101375.88;;;20.44;100.00
61472;BME280;47337;54.068;12.114;2022-08-27T05:33:07;101373.28;;;20.39;100.00
61472;BME280;47337;54.068;12.114;2022-08-27T05:35:44;101363.53;;;20.38;100.00
61472;BME280;47337;54.068;12.114;2022-08-27T05:38:11;101356.44;;;20.36;100.00
61472;BME280;47337;54.068;12.114;2022-08-27T05:40:38;101347.59;;;20.34;100.00
61472;BME280;47337;54.068;12.114;2022-08-27T05:43:05;101336.97;;;20.31;100.00
61472;BME280;47337;54.068;12.114;2022-08-27T05:45:31;101337.88;;;20.30;100.00
61472;BME280;47337;54.068;12.114;2022-08-27T05:47:59;101333.53;;;20.24;100.00
61472;BME280;47337;54.068;12.114;2022-08-27T05:50:25;101332.75;;;20.21;100.00
61472;BME280;47337;54.068;12.114;2022-08-27T05:52:51;101340.59;;;20.28;100.00
61472;BME280;47337;54.068;12.114;2022-08-27T05:55:16;101327.25;;;20.28;100.00
61472;BME280;47337;54.068;12.114;2022-08-27T05:57:42;101321.91;;;20.28;100.00
61472;BME280;47337;54.068;12.114;2022-08-27T06:00:10;101335.22;;;20.30;100.00
61472;BME280;47337;54.068;12.114;2022-08-27T06:02:54;101324.59;;;20.28;100.00
61472;BME280;47337;54.068;12.114;2022-08-27T06:05:20;101323.69;;;20.29;100.00
61472;BME280;47337;54.068;12.114;2022-08-27T06:07:45;101314.81;;;20.27;100.00
61472;BME280;47337;54.068;12.114;2022-08-27T06:10:16;101314.00;;;20.24;100.00
61472;BME280;47337;54.068;12.114;2022-08-27T06:12:41;101304.91;;;20.34;100.00
61472;BME280;47337;54.068;12.114;2022-08-27T06:15:07;101303.09;;;20.34;100.00
61472;BME280;47337;54.068;12.114;2022-08-27T06:17:32;101293.13;;;20.45;100.00
61472;BME280;47337;54.068;12.114;2022-08-27T06:20:00;101300.16;;;20.50;100.00
61472;BME280;47337;54.068;12.114;2022-08-27T06:22:25;101285.91;;;20.51;100.00
61472;BME280;47337;54.068;12.114;2022-08-27T06:24:53;101279.53;;;20.56;100.00
61472;BME280;47337;54.068;12.114;2022-08-27T06:27:18;101277.72;;;20.58;100.00
61472;BME280;47337;54.068;12.114;2022-08-27T06:29:45;101267.81;;;20.65;100.00
61472;BME280;47337;54.068;12.114;2022-08-27T06:32:11;101260.44;;;20.76;100.00
61472;BME280;47337;54.068;12.114;2022-08-27T06:34:38;101252.22;;;20.83;100.00
61472;BME280;47337;54.068;12.114;2022-08-27T06:37:04;101234.13;;;20.96;100.00
61472;BME280;47337;54.068;12.114;2022-08-27T06:39:30;101211.19;;;20.88;100.00
61472;BME280;47337;54.068;12.114;2022-08-27T06:41:58;101209.44;;;20.87;100.00
61472;BME280;47337;54.068;12.114;2022-08-27T06:44:24;101192.00;;;20.72;100.00
61472;BME280;47337;54.068;12.114;2022-08-27T06:46:50;101191.91;;;20.76;100.00
61472;BME280;47337;54.068;12.114;2022-08-27T06:49:16;101188.44;;;20.73;100.00
61472;BME280;47337;54.068;12.114;2022-08-27T06:51:45;101183.06;;;20.74;100.00
61472;BME280;47337;54.068;12.114;2022-08-27T06:54:12;101187.34;;;20.80;100.00
61472;BME280;47337;54.068;12.114;2022-08-27T06:56:39;101186.44;;;20.81;100.00
61472;BME280;47337;54.068;12.114;2022-08-27T06:59:08;101193.31;;;20.91;100.00
61472;BME280;47337;54.068;12.114;2022-08-27T07:01:38;101179.28;;;20.83;100.00
61472;BME280;47337;54.068;12.114;2022-08-27T07:04:07;101166.88;;;20.80;100.00
61472;BME280;47337;54.068;12.114;2022-08-27T07:06:34;101171.41;;;20.77;100.00
61472;BME280;47337;54.068;12.114;2022-08-27T07:09:00;101170.75;;;20.67;100.00
61472;BME280;47337;54.068;12.114;2022-08-27T07:11:28;101174.28;;;20.69;100.00
61472;BME280;47337;54.068;12.114;2022-08-27T07:13:54;101164.06;;;20.51;100.00
61472;BME280;47337;54.068;12.114;2022-08-27T07:16:23;101179.13;;;20.54;100.00
61472;BME280;47337;54.068;12.114;2022-08-27T07:18:49;101174.78;;;20.50;100.00
61472;BME280;47337;54.068;12.114;2022-08-27T07:21:16;101181.00;;;20.49;100.00
61472;BME280;47337;54.068;12.114;2022-08-27T07:23:44;101185.44;;;20.50;100.00
61472;BME280;47337;54.068;12.114;2022-08-27T07:26:12;101182.34;;;20.29;100.00
61472;BME280;47337;54.068;12.114;2022-08-27T07:28:43;101178.94;;;20.23;100.00
61472;BME280;47337;54.068;12.114;2022-08-27T07:31:10;101181.69;;;20.18;100.00
61472;BME280;47337;54.068;12.114;2022-08-27T07:33:38;101182.50;;;20.22;100.00
61472;BME280;47337;54.068;12.114;2022-08-27T07:36:05;101192.38;;;20.18;100.00
61472;BME280;47337;54.068;12.114;2022-08-27T07:38:31;101202.31;;;20.12;100.00
61472;BME280;47337;54.068;12.114;2022-08-27T07:40:59;101203.97;;;20.16;100.00
61472;BME280;47337;54.068;12.114;2022-08-27T07:43:24;101201.22;;;20.20;100.00
61472;BME280;47337;54.068;12.114;2022-08-27T07:46:08;101207.50;;;20.16;100.00
61472;BME280;47337;54.068;12.114;2022-08-27T07:48:37;101207.56;;;20.13;100.00
61472;BME280;47337;54.068;12.114;2022-08-27T07:51:03;101209.25;;;20.19;100.00
61472;BME280;47337;54.068;12.114;2022-08-27T07:53:30;101213.69;;;20.18;100.00
61472;BME280;47337;54.068;12.114;2022-08-27T07:56:04;101217.22;;;20.20;100.00
61472;BME280;47337;54.068;12.114;2022-08-27T07:58:30;101216.34;;;20.18;100.00
61472;BME280;47337;54.068;12.114;2022-08-27T08:00:58;101222.47;;;20.23;100.00
61472;BME280;47337;54.068;12.114;2022-08-27T08:03:25;101223.41;;;20.22;100.00
61472;BME280;47337;54.068;12.114;2022-08-27T08:05:50;101220.84;;;20.16;100.00
61472;BME280;47337;54.068;12.114;2022-08-27T08:08:20;101212.75;;;20.21;100.00
61472;BME280;47337;54.068;12.114;2022-08-27T08:10:45;101216.97;;;20.31;100.00
61472;BME280;47337;54.068;12.114;2022-08-27T08:13:13;101217.25;;;20.19;100.00
61472;BME280;47337;54.068;12.114;2022-08-27T08:15:45;101210.88;;;20.24;100.00
61472;BME280;47337;54.068;12.114;2022-08-27T08:18:11;101209.94;;;20.27;100.00
61472;BME280;47337;54.068;12.114;2022-08-27T08:20:39;101205.50;;;20.26;100.00
61472;BME280;47337;54.068;12.114;2022-08-27T08:23:05;101204.63;;;20.25;100.00
61472;BME280;47337;54.068;12.114;2022-08-27T08:25:31;101205.38;;;20.33;100.00
61472;BME280;47337;54.068;12.114;2022-08-27T08:27:57;101202.81;;;20.27;100.00
61472;BME280;47337;54.068;12.114;2022-08-27T08:30:22;101201.09;;;20.25;100.00
61472;BME280;47337;54.068;12.114;2022-08-27T08:32:50;101203.72;;;20.26;100.00
61472;BME280;47337;54.068;12.114;2022-08-27T08:35:18;101193.03;;;20.28;100.00
61472;BME280;47337;54.068;12.114;2022-08-27T08:37:44;101181.69;;;20.18;100.00
61472;BME280;47337;54.068;12.114;2022-08-27T08:40:10;101183.19;;;20.31;100.00
61472;BME280;47337;54.068;12.114;2022-08-27T08:42:50;101195.09;;;20.55;100.00
61472;BME280;47337;54.068;12.114;2022-08-27T08:45:20;101182.56;;;20.57;100.00
61472;BME280;47337;54.068;12.114;2022-08-27T08:47:52;101174.25;;;20.71;100.00
61472;BME280;47337;54.068;12.114;2022-08-27T08:50:35;101170.25;;;20.87;100.00
61472;BME280;47337;54.068;12.114;2022-08-27T08:56:01;101132.41;;;21.05;100.00
61472;BME280;47337;54.068;12.114;2022-08-27T08:58:55;101126.94;;;21.10;100.00
61472;BME280;47337;54.068;12.114;2022-08-27T09:01:25;101095.81;;;21.09;100.00
61472;BME280;47337;54.068;12.114;2022-08-27T09:03:55;101093.09;;;21.43;100.00
61472;BME280;47337;54.068;12.114;2022-08-27T09:09:42;101048.63;;;21.40;100.00
61472;BME280;47337;54.068;12.114;2022-08-27T09:12:28;101034.59;;;21.34;100.00
61472;BME280;47337;54.068;12.114;2022-08-27T09:15:21;101023.03;;;21.33;100.00
61472;BME280;47337;54.068;12.114;2022-08-27T09:17:49;101025.19;;;21.21;100.00
61472;BME280;47337;54.068;12.114;2022-08-27T09:20:18;101014.09;;;21.34;100.00
61472;BME280;47337;54.068;12.114;2022-08-27T09:25:27;101001.38;;;21.13;100.00
61472;BME280;47337;54.068;12.114;2022-08-27T09:28:05;100994.59;;;21.01;100.00
61472;BME280;47337;54.068;12.114;2022-08-27T09:30:39;100989.19;;;21.03;100.00
61472;BME280;47337;54.068;12.114;2022-08-27T09:33:05;100993.25;;;21.16;100.00
61472;BME280;47337;54.068;12.114;2022-08-27T09:35:51;100989.25;;;21.01;100.00
61472;BME280;47337;54.068;12.114;2022-08-27T09:38:30;100982.97;;;21.02;100.00
61472;BME280;47337;54.068;12.114;2022-08-27T09:40:59;100983.75;;;21.07;100.00
61472;BME280;47337;54.068;12.114;2022-08-27T09:43:30;100987.53;;;21.30;100.00
61472;BME280;47337;54.068;12.114;2022-08-27T09:46:05;100984.06;;;20.97;100.00
61472;BME280;47337;54.068;12.114;2022-08-27T09:48:36;100985.06;;;21.24;100.00
61472;BME280;47337;54.068;12.114;2022-08-27T09:51:04;100991.47;;;21.16;100.00
61472;BME280;47337;54.068;12.114;2022-08-27T09:53:45;100985.47;;;21.08;100.00
61472;BME280;47337;54.068;12.114;2022-08-27T09:56:28;100982.69;;;20.82;100.00
61472;BME280;47337;54.068;12.114;2022-08-27T09:59:00;100991.69;;;20.78;100.00
61472;BME280;47337;54.068;12.114;2022-08-27T10:01:29;100988.03;;;20.82;100.00
61472;BME280;47337;54.068;12.114;2022-08-27T10:06:32;100978.91;;;20.89;100.00
61472;BME280;47337;54.068;12.114;2022-08-27T10:12:14;100985.84;;;20.96;100.00
61472;BME280;47337;54.068;12.114;2022-08-27T10:14:47;100976.53;;;21.09;100.00
61472;BME280;47337;54.068;12.114;2022-08-27T10:17:36;100967.88;;;21.32;100.00
61472;BME280;47337;54.068;12.114;2022-08-27T10:20:19;100958.06;;;21.33;100.00
61472;BME280;47337;54.068;12.114;2022-08-27T10:28:21;100937.72;;;21.29;100.00
61472;BME280;47337;54.068;12.114;2022-08-27T10:34:12;100931.44;;;21.30;100.00
61472;BME280;47337;54.068;12.114;2022-08-27T10:39:44;100934.53;;;22.00;100.00
61472;BME280;47337;54.068;12.114;2022-08-27T10:50:57;100910.13;;;22.09;100.00
61472;BME280;47337;54.068;12.114;2022-08-27T10:56:24;100907.94;;;21.93;100.00
61472;BME280;47337;54.068;12.114;2022-08-27T10:59:04;100913.53;;;22.14;100.00
61472;BME280;47337;54.068;12.114;2022-08-27T11:04:35;100895.16;;;22.78;100.00
61472;BME280;47337;54.068;12.114;2022-08-27T11:07:04;100882.63;;;23.23;100.00
61472;BME280;47337;54.068;12.114;2022-08-27T11:09:54;100865.41;;;23.30;100.00
61472;BME280;47337;54.068;12.114;2022-08-27T11:12:36;100854.59;;;23.32;100.00
61472;BME280;47337;54.068;12.114;2022-08-27T11:15:12;100853.88;;;23.50;100.00
61472;BME280;47337;54.068;12.114;2022-08-27T11:17:45;100858.94;;;22.91;100.00
61472;BME280;47337;54.068;12.114;2022-08-27T11:22:55;100864.91;;;22.74;100.00
61472;BME280;47337;54.068;12.114;2022-08-27T11:27:49;100870.09;;;23.02;100.00
61472;BME280;47337;54.068;12.114;2022-08-27T11:30:37;100857.91;;;23.39;100.00
61472;BME280;47337;54.068;12.114;2022-08-27T11:33:31;100855.66;;;23.28;100.00
61472;BME280;47337;54.068;12.114;2022-08-27T11:39:02;100860.03;;;23.09;100.00
61472;BME280;47337;54.068;12.114;2022-08-27T11:41:53;100869.16;;;23.03;100.00
61472;BME280;47337;54.068;12.114;2022-08-27T11:44:24;100867.84;;;23.13;100.00
61472;BME280;47337;54.068;12.114;2022-08-27T11:46:55;100866.59;;;23.00;100.00
61472;BME280;47337;54.068;12.114;2022-08-27T11:52:07;100866.16;;;23.11;100.00
61472;BME280;47337;54.068;12.114;2022-08-27T11:54:48;100870.50;;;22.91;100.00
61472;BME280;47337;54.068;12.114;2022-08-27T11:57:34;100865.69;;;22.54;100.00
61472;BME280;47337;54.068;12.114;2022-08-27T12:00:37;100869.50;;;22.71;100.00
61472;BME280;47337;54.068;12.114;2022-08-27T12:03:09;100860.44;;;22.75;100.00
61472;BME280;47337;54.068;12.114;2022-08-27T12:19:32;100852.56;;;22.70;100.00
61472;BME280;47337;54.068;12.114;2022-08-27T12:24:54;100876.00;;;22.40;100.00
61472;BME280;47337;54.068;12.114;2022-08-27T12:29:51;100866.50;;;22.56;100.00
61472;BME280;47337;54.068;12.114;2022-08-27T12:32:38;100876.44;;;22.78;100.00
61472;BME280;47337;54.068;12.114;2022-08-27T12:35:22;100870.03;;;23.04;100.00
61472;BME280;47337;54.068;12.114;2022-08-27T12:40:39;100871.09;;;23.21;100.00
61472;BME280;47337;54.068;12.114;2022-08-27T12:43:20;100866.16;;;23.56;100.00
61472;BME280;47337;54.068;12.114;2022-08-27T12:45:58;100866.13;;;23.78;100.00
61472;BME280;47337;54.068;12.114;2022-08-27T12:48:30;100859.78;;;23.58;100.00
61472;BME280;47337;54.068;12.114;2022-08-27T12:51:04;100865.13;;;23.80;100.00
61472;BME280;47337;54.068;12.114;2022-08-27T12:59:32;100874.78;;;24.04;100.00
61472;BME280;47337;54.068;12.114;2022-08-27T13:04:27;100863.97;;;24.26;100.00
61472;BME280;47337;54.068;12.114;2022-08-27T13:06:53;100866.19;;;23.96;100.00
61472;BME280;47337;54.068;12.114;2022-08-27T13:09:31;100876.28;;;23.69;100.00
61472;BME280;47337;54.068;12.114;2022-08-27T13:11:58;100880.69;;;23.92;100.00
61472;BME280;47337;54.068;12.114;2022-08-27T13:14:35;100884.38;;;24.10;100.00
61472;BME280;47337;54.068;12.114;2022-08-27T13:17:12;100883.81;;;23.82;100.00
61472;BME280;47337;54.068;12.114;2022-08-27T13:19:57;100886.47;;;23.61;100.00
61472;BME280;47337;54.068;12.114;2022-08-27T13:22:26;100895.22;;;23.43;100.00
61472;BME280;47337;54.068;12.114;2022-08-27T13:24:54;100899.38;;;23.52;100.00
61472;BME280;47337;54.068;12.114;2022-08-27T13:27:28;100912.50;;;23.36;100.00
61472;BME280;47337;54.068;12.114;2022-08-27T13:29:55;100908.56;;;23.45;100.00
61472;BME280;47337;54.068;12.114;2022-08-27T13:32:23;100901.50;;;23.20;100.00
61472;BME280;47337;54.068;12.114;2022-08-27T13:34:54;100911.03;;;22.82;100.00
61472;BME280;47337;54.068;12.114;2022-08-27T13:37:32;100912.59;;;23.11;100.00
61472;BME280;47337;54.068;12.114;2022-08-27T13:39:57;100915.69;;;22.52;100.00
61472;BME280;47337;54.068;12.114;2022-08-27T13:42:23;100929.94;;;22.28;100.00
61472;BME280;47337;54.068;12.114;2022-08-27T13:44:51;100938.56;;;22.36;100.00
61472;BME280;47337;54.068;12.114;2022-08-27T13:47:23;100936.47;;;22.21;100.00
61472;BME280;47337;54.068;12.114;2022-08-27T13:49:49;100936.78;;;22.12;100.00
61472;BME280;47337;54.068;12.114;2022-08-27T13:52:33;100948.50;;;22.08;100.00
61472;BME280;47337;54.068;12.114;2022-08-27T13:55:15;100949.38;;;21.82;100.00
61472;BME280;47337;54.068;12.114;2022-08-27T13:57:45;100955.41;;;21.61;100.00
61472;BME280;47337;54.068;12.114;2022-08-27T14:02:39;100948.69;;;21.47;100.00
61472;BME280;47337;54.068;12.114;2022-08-27T14:05:13;100946.41;;;21.35;100.00
61472;BME280;47337;54.068;12.114;2022-08-27T14:07:47;100956.41;;;21.29;100.00
61472;BME280;47337;54.068;12.114;2022-08-27T14:12:42;100957.47;;;21.23;100.00